Station Historical Data
Daily Summary for April 29, 2012 Units:  English    Metric   Both
« Previous Day
Next Day »
Daily Weekly Monthly Yearly Custom
  High: Low: Average:
Temperature: 83.7 °F 62.3 °F 72.1 °F
Dew Point: 67.3 °F 54.7 °F 61.4 °F
Humidity: 92% 39% 71%
Wind Speed: 12.0mph 0.0mph 2.5mph
Wind Gust: 14.0mph - -
Wind- - South
Pressure: 30.08 in 30.00 in -
Precipitation: 0.00 in    
Historical Graphs
 
 
Tabular Data for April 29, 2012
Time Temperature Dew Point Pressure Wind Wind Speed Wind Gust Humidity Rainfall Rate (Hourly) Conditions
00:00 66.2 °F 60.9 °F 30.02 in ENE 1.0 mph 1.0 mph 83% 0.00 in
00:05 66.1 °F 61.1 °F 30.02 in ENE 1.0 mph 1.0 mph 84% 0.00 in
00:10 66.1 °F 60.8 °F 30.02 in Calm     83% 0.00 in
00:15 65.7 °F 60.7 °F 30.03 in Calm   1.0 mph 84% 0.00 in
00:21 65.3 °F 60.7 °F 30.03 in ENE 1.0 mph 1.0 mph 85% 0.00 in
00:26 64.8 °F 60.5 °F 30.03 in ENE 1.0 mph 2.0 mph 86% 0.00 in
00:31 65.0 °F 61.0 °F 30.03 in ENE 1.0 mph 1.0 mph 87% 0.00 in
00:36 64.8 °F 60.5 °F 30.03 in Calm   1.0 mph 86% 0.00 in
00:41 64.5 °F 60.2 °F 30.03 in Calm     86% 0.00 in
00:46 64.2 °F 60.3 °F 30.04 in NNE 1.0 mph 2.0 mph 87% 0.00 in
00:51 63.9 °F 60.3 °F 30.04 in Calm   1.0 mph 88% 0.00 in
00:56 63.9 °F 60.6 °F 30.04 in Calm     89% 0.00 in
01:01 63.9 °F 60.6 °F 30.04 in Calm     89% 0.00 in
01:06 64.0 °F 60.7 °F 30.04 in Calm     89% 0.00 in
01:11 64.2 °F 60.6 °F 30.04 in Calm   1.0 mph 88% 0.00 in
01:16 64.2 °F 60.6 °F 30.04 in Calm     88% 0.00 in
01:21 64.0 °F 60.4 °F 30.04 in Calm     88% 0.00 in
01:26 63.9 °F 60.6 °F 30.04 in Calm     89% 0.00 in
01:31 63.8 °F 60.5 °F 30.04 in Calm     89% 0.00 in
01:36 64.1 °F 60.8 °F 30.04 in ESE 1.0 mph 2.0 mph 89% 0.00 in
01:41 64.5 °F 60.9 °F 30.04 in East 1.0 mph 1.0 mph 88% 0.00 in
01:46 65.1 °F 60.8 °F 30.04 in Calm   2.0 mph 86% 0.00 in
01:51 65.2 °F 60.6 °F 30.04 in Calm     85% 0.00 in
01:56 64.9 °F 60.6 °F 30.04 in Calm   1.0 mph 86% 0.00 in
02:01 65.0 °F 60.7 °F 30.04 in ENE 1.0 mph 1.0 mph 86% 0.00 in
02:06 64.9 °F 60.6 °F 30.04 in Calm   2.0 mph 86% 0.00 in
02:11 64.6 °F 60.3 °F 30.04 in Calm     86% 0.00 in
02:16 64.2 °F 60.3 °F 30.04 in East 1.0 mph 1.0 mph 87% 0.00 in
02:21 64.3 °F 60.7 °F 30.04 in East 1.0 mph 3.0 mph 88% 0.00 in
02:26 64.5 °F 60.5 °F 30.04 in Calm   1.0 mph 87% 0.00 in
02:31 64.3 °F 60.3 °F 30.04 in Calm   1.0 mph 87% 0.00 in
02:37 63.9 °F 60.0 °F 30.03 in Calm     87% 0.00 in
02:42 63.5 °F 59.9 °F 30.03 in ESE 2.0 mph 2.0 mph 88% 0.00 in
02:47 63.6 °F 60.3 °F 30.03 in ESE 3.0 mph 4.0 mph 89% 0.00 in
02:52 63.9 °F 60.6 °F 30.03 in East 2.0 mph 4.0 mph 89% 0.00 in
02:57 64.1 °F 60.5 °F 30.03 in ESE 3.0 mph 3.0 mph 88% 0.00 in
03:02 64.1 °F 60.5 °F 30.03 in ESE 3.0 mph 4.0 mph 88% 0.00 in
03:07 64.1 °F 60.5 °F 30.03 in ESE 3.0 mph 4.0 mph 88% 0.00 in
03:12 64.2 °F 60.6 °F 30.03 in ESE 3.0 mph 5.0 mph 88% 0.00 in
03:17 64.5 °F 60.9 °F 30.03 in ESE 4.0 mph 5.0 mph 88% 0.00 in
03:22 64.7 °F 60.8 °F 30.03 in ESE 3.0 mph 4.0 mph 87% 0.00 in
03:27 64.6 °F 60.7 °F 30.03 in ESE 2.0 mph 3.0 mph 87% 0.00 in
03:32 64.5 °F 60.5 °F 30.03 in ESE 2.0 mph 3.0 mph 87% 0.00 in
03:37 64.3 °F 60.7 °F 30.03 in ESE 3.0 mph 4.0 mph 88% 0.00 in
03:42 64.2 °F 60.6 °F 30.03 in East 2.0 mph 2.0 mph 88% 0.00 in
03:47 64.0 °F 60.1 °F 30.03 in Calm     87% 0.00 in
03:52 63.8 °F 60.2 °F 30.03 in SE 1.0 mph 2.0 mph 88% 0.00 in
03:57 63.5 °F 59.9 °F 30.03 in Calm     88% 0.00 in
04:02 63.1 °F 59.8 °F 30.03 in Calm   1.0 mph 89% 0.00 in
04:07 63.0 °F 60.0 °F 30.04 in Calm   1.0 mph 90% 0.00 in
04:12 62.9 °F 59.9 °F 30.04 in Calm     90% 0.00 in
04:17 62.8 °F 59.8 °F 30.04 in ESE 1.0 mph 1.0 mph 90% 0.00 in
04:22 62.7 °F 59.7 °F 30.03 in SE 1.0 mph 1.0 mph 90% 0.00 in
04:27 62.8 °F 59.8 °F 30.04 in SE 1.0 mph 3.0 mph 90% 0.00 in
04:33 63.0 °F 60.0 °F 30.04 in ESE 3.0 mph 3.0 mph 90% 0.00 in
04:38 63.2 °F 60.2 °F 30.04 in SE 2.0 mph 2.0 mph 90% 0.00 in
04:43 63.3 °F 60.3 °F 30.04 in SE 1.0 mph 2.0 mph 90% 0.00 in
04:48 63.5 °F 60.5 °F 30.03 in ESE 3.0 mph 3.0 mph 90% 0.00 in
04:53 63.7 °F 60.7 °F 30.03 in ESE 3.0 mph 4.0 mph 90% 0.00 in
04:58 63.7 °F 60.4 °F 30.03 in SE 2.0 mph 4.0 mph 89% 0.00 in
05:03 63.6 °F 60.3 °F 30.03 in ESE 2.0 mph 3.0 mph 89% 0.00 in
05:08 63.6 °F 60.3 °F 30.04 in ESE 2.0 mph 3.0 mph 89% 0.00 in
05:13 63.5 °F 60.2 °F 30.04 in SE 1.0 mph 3.0 mph 89% 0.00 in
05:18 63.3 °F 60.0 °F 30.04 in SE 1.0 mph 2.0 mph 89% 0.00 in
05:23 63.2 °F 60.2 °F 30.04 in SE 2.0 mph 2.0 mph 90% 0.00 in
05:28 63.0 °F 60.0 °F 30.04 in SE 3.0 mph 3.0 mph 90% 0.00 in
05:33 62.9 °F 59.9 °F 30.04 in SSE 2.0 mph 2.0 mph 90% 0.00 in
05:38 62.9 °F 59.9 °F 30.03 in SSE 2.0 mph 3.0 mph 90% 0.00 in
05:43 63.0 °F 60.3 °F 30.03 in SSE 2.0 mph 3.0 mph 91% 0.00 in
05:48 62.8 °F 59.8 °F 30.03 in SE 2.0 mph 3.0 mph 90% 0.00 in
05:53 63.0 °F 60.3 °F 30.03 in SE 3.0 mph 3.0 mph 91% 0.00 in
05:58 63.1 °F 60.4 °F 30.03 in SSE 3.0 mph 4.0 mph 91% 0.00 in
06:03 63.2 °F 60.5 °F 30.03 in SSE 4.0 mph 4.0 mph 91% 0.00 in
06:08 63.2 °F 60.5 °F 30.03 in SSE 4.0 mph 5.0 mph 91% 0.00 in
06:13 63.1 °F 60.4 °F 30.03 in SE 3.0 mph 4.0 mph 91% 0.00 in
06:18 63.2 °F 60.5 °F 30.03 in SSE 3.0 mph 5.0 mph 91% 0.00 in
06:23 63.2 °F 60.5 °F 30.03 in SE 4.0 mph 5.0 mph 91% 0.00 in
06:28 63.2 °F 60.5 °F 30.02 in SE 3.0 mph 5.0 mph 91% 0.00 in
06:33 63.2 °F 60.5 °F 30.02 in SE 2.0 mph 5.0 mph 91% 0.00 in
06:38 63.3 °F 60.6 °F 30.03 in SE 2.0 mph 3.0 mph 91% 0.00 in
06:43 63.1 °F 60.4 °F 30.03 in SE 2.0 mph 3.0 mph 91% 0.00 in
06:48 63.1 °F 60.4 °F 30.03 in SSE 2.0 mph 2.0 mph 91% 0.00 in
06:54 63.0 °F 60.3 °F 30.03 in SSE 2.0 mph 2.0 mph 91% 0.00 in
06:59 62.9 °F 60.2 °F 30.04 in SE 1.0 mph 2.0 mph 91% 0.00 in
07:04 62.7 °F 60.0 °F 30.04 in SE 1.0 mph 2.0 mph 91% 0.00 in
07:09 62.6 °F 59.9 °F 30.04 in Calm     91% 0.00 in
07:14 62.5 °F 59.8 °F 30.05 in Calm     91% 0.00 in
07:19 62.3 °F 60.0 °F 30.05 in Calm     92% 0.00 in
07:24 62.3 °F 60.0 °F 30.05 in Calm     92% 0.00 in
07:29 62.3 °F 60.0 °F 30.05 in Calm     92% 0.00 in
07:34 62.4 °F 60.0 °F 30.05 in Calm     92% 0.00 in
07:39 62.6 °F 60.2 °F 30.06 in Calm     92% 0.00 in
07:44 62.9 °F 60.5 °F 30.06 in Calm     92% 0.00 in
07:49 63.3 °F 60.9 °F 30.06 in SSE 1.0 mph 3.0 mph 92% 0.00 in
07:54 63.6 °F 61.2 °F 30.06 in SSE 2.0 mph 3.0 mph 92% 0.00 in
07:59 63.9 °F 61.2 °F 30.07 in SSE 2.0 mph 2.0 mph 91% 0.00 in
08:04 64.2 °F 61.5 °F 30.07 in SE 2.0 mph 2.0 mph 91% 0.00 in
08:09 64.7 °F 62.0 °F 30.07 in SE 1.0 mph 2.0 mph 91% 0.00 in
08:14 65.2 °F 62.2 °F 30.08 in SW 1.0 mph 2.0 mph 90% 0.00 in
08:19 65.8 °F 62.5 °F 30.08 in South 3.0 mph 3.0 mph 89% 0.00 in
08:24 66.2 °F 62.9 °F 30.07 in SE 2.0 mph 5.0 mph 89% 0.00 in
08:29 66.7 °F 63.0 °F 30.08 in SE 4.0 mph 5.0 mph 88% 0.00 in
08:34 67.1 °F 63.1 °F 30.08 in SSW 1.0 mph 3.0 mph 87% 0.00 in
08:39 67.6 °F 63.6 °F 30.08 in SSE 4.0 mph 4.0 mph 87% 0.00 in
08:44 68.1 °F 63.8 °F 30.08 in South 1.0 mph 3.0 mph 86% 0.00 in
08:49 68.5 °F 63.5 °F 30.08 in SSW 2.0 mph 3.0 mph 84% 0.00 in
08:54 68.9 °F 63.9 °F 30.08 in SSW 2.0 mph 3.0 mph 84% 0.00 in
08:59 69.3 °F 63.9 °F 30.08 in SW 2.0 mph 3.0 mph 83% 0.00 in
09:04 69.7 °F 64.3 °F 30.08 in South 2.0 mph 5.0 mph 83% 0.00 in
09:09 70.1 °F 64.0 °F 30.08 in SSE 4.0 mph 5.0 mph 81% 0.00 in
09:14 70.4 °F 64.3 °F 30.08 in SSW 1.0 mph 5.0 mph 81% 0.00 in
09:19 70.5 °F 64.0 °F 30.08 in SSW 3.0 mph 5.0 mph 80% 0.00 in
09:24 70.5 °F 64.4 °F 30.08 in SW 3.0 mph 5.0 mph 81% 0.00 in
09:29 70.6 °F 64.1 °F 30.08 in SW 4.0 mph 6.0 mph 80% 0.00 in
09:34 70.7 °F 64.6 °F 30.08 in SSW 4.0 mph 5.0 mph 81% 0.00 in
09:39 71.1 °F 65.0 °F 30.08 in SW 6.0 mph 6.0 mph 81% 0.00 in
09:44 71.1 °F 64.6 °F 30.08 in WSW 5.0 mph 6.0 mph 80% 0.00 in
09:49 71.4 °F 64.6 °F 30.08 in SW 3.0 mph 8.0 mph 79% 0.00 in
09:54 71.6 °F 64.8 °F 30.08 in SW 3.0 mph 8.0 mph 79% 0.00 in
09:59 71.6 °F 64.8 °F 30.08 in WSW 7.0 mph 9.0 mph 79% 0.00 in
10:04 71.6 °F 64.8 °F 30.08 in SW 6.0 mph 9.0 mph 79% 0.00 in
10:09 71.6 °F 64.4 °F 30.08 in SW 7.0 mph 10.0 mph 78% 0.00 in
10:14 72.0 °F 65.1 °F 30.08 in SW 4.0 mph 7.0 mph 79% 0.00 in
10:19 72.3 °F 65.1 °F 30.08 in WSW 3.0 mph 6.0 mph 78% 0.00 in
10:25 72.9 °F 66.0 °F 30.08 in WSW 3.0 mph 6.0 mph 79% 0.00 in
10:30 73.4 °F 65.8 °F 30.08 in WSW 6.0 mph 7.0 mph 77% 0.00 in
10:31 73.5 °F 65.9 °F 30.08 in WNW 3.0 mph 7.0 mph 77% 0.00 in
10:36 74.2 °F 66.5 °F 30.08 in SSW 3.0 mph 4.0 mph 77% 0.00 in
10:42 74.6 °F 66.2 °F 30.07 in SW 4.0 mph 7.0 mph 75% 0.00 in
10:47 74.7 °F 66.6 °F 30.07 in SSW 2.0 mph 6.0 mph 76% 0.00 in
10:52 75.4 °F 66.2 °F 30.07 in SE 2.0 mph 4.0 mph 73% 0.00 in
10:57 75.9 °F 66.6 °F 30.07 in SSW 2.0 mph 4.0 mph 73% 0.00 in
11:02 76.0 °F 65.9 °F 30.07 in SW 3.0 mph 5.0 mph 71% 0.00 in
11:07 76.2 °F 66.1 °F 30.07 in SE 2.0 mph 5.0 mph 71% 0.00 in
11:12 76.6 °F 66.1 °F 30.08 in SSW 2.0 mph 7.0 mph 70% 0.00 in
11:17 76.9 °F 65.5 °F 30.08 in SSE 2.0 mph 6.0 mph 68% 0.00 in
11:22 77.2 °F 65.4 °F 30.08 in West 2.0 mph 7.0 mph 67% 0.00 in
11:27 77.1 °F 65.7 °F 30.08 in WNW 3.0 mph 7.0 mph 68% 0.00 in
11:32 77.1 °F 66.2 °F 30.08 in SSW 3.0 mph 8.0 mph 69% 0.00 in
11:37 77.3 °F 66.3 °F 30.08 in South 2.0 mph 5.0 mph 69% 0.00 in
11:42 77.9 °F 67.3 °F 30.08 in SSW 3.0 mph 6.0 mph 70% 0.00 in
11:47 78.1 °F 65.8 °F 30.08 in West 4.0 mph 7.0 mph 66% 0.00 in
11:52 78.1 °F 66.3 °F 30.08 in SW 7.0 mph 8.0 mph 67% 0.00 in
11:57 77.6 °F 64.5 °F 30.07 in WSW 2.0 mph 8.0 mph 64% 0.00 in
12:02 78.1 °F 65.4 °F 30.07 in SSE 5.0 mph 6.0 mph 65% 0.00 in
12:07 77.8 °F 65.5 °F 30.07 in SW 3.0 mph 7.0 mph 66% 0.00 in
12:12 77.8 °F 65.5 °F 30.07 in ESE 4.0 mph 6.0 mph 66% 0.00 in
12:18 78.1 °F 66.3 °F 30.07 in SW 5.0 mph 5.0 mph 67% 0.00 in
12:23 78.6 °F 66.7 °F 30.07 in WNW 2.0 mph 14.0 mph 67% 0.00 in
12:27 79.6 °F 67.2 °F 30.07 in SSE 8.0 mph 9.0 mph 66% 0.00 in
12:32 79.6 °F 65.4 °F 30.07 in SE 5.0 mph 8.0 mph 62% 0.00 in
12:37 79.2 °F 64.1 °F 30.07 in SE 8.0 mph 10.0 mph 60% 0.00 in
12:43 79.2 °F 64.6 °F 30.06 in SE 8.0 mph 9.0 mph 61% 0.00 in
12:48 79.2 °F 64.1 °F 30.06 in WSW 7.0 mph 8.0 mph 60% 0.00 in
12:53 79.3 °F 65.6 °F 30.06 in SSE 10.0 mph 11.0 mph 63% 0.00 in
12:58 79.4 °F 64.8 °F 30.06 in SW 5.0 mph 8.0 mph 61% 0.00 in
13:03 79.6 °F 63.5 °F 30.06 in SE 7.0 mph 13.0 mph 58% 0.00 in
13:08 79.8 °F 63.2 °F 30.06 in SE 9.0 mph 13.0 mph 57% 0.00 in
13:13 79.8 °F 64.7 °F 30.06 in SSE 9.0 mph 11.0 mph 60% 0.00 in
13:18 79.7 °F 64.1 °F 30.06 in South 4.0 mph 8.0 mph 59% 0.00 in
13:23 79.9 °F 63.8 °F 30.05 in South 9.0 mph 9.0 mph 58% 0.00 in
13:28 79.9 °F 64.3 °F 30.05 in SSE 7.0 mph 8.0 mph 59% 0.00 in
13:33 79.7 °F 64.6 °F 30.05 in SSW 5.0 mph 6.0 mph 60% 0.00 in
13:38 80.0 °F 64.4 °F 30.05 in SSE 3.0 mph 10.0 mph 59% 0.00 in
13:43 80.3 °F 65.2 °F 30.05 in SSE 7.0 mph 10.0 mph 60% 0.00 in
13:48 80.1 °F 63.5 °F 30.05 in SE 3.0 mph 10.0 mph 57% 0.00 in
13:53 80.0 °F 64.9 °F 30.05 in ESE 5.0 mph 10.0 mph 60% 0.00 in
13:58 79.8 °F 63.7 °F 30.05 in SE 3.0 mph 6.0 mph 58% 0.00 in
14:03 80.3 °F 65.2 °F 30.05 in SSE 8.0 mph 8.0 mph 60% 0.00 in
14:08 80.0 °F 63.9 °F 30.05 in SSE 3.0 mph 6.0 mph 58% 0.00 in
14:13 80.3 °F 64.7 °F 30.05 in SSE 7.0 mph 10.0 mph 59% 0.00 in
14:18 80.4 °F 65.3 °F 30.05 in SE 12.0 mph 12.0 mph 60% 0.00 in
14:23 80.7 °F 64.1 °F 30.04 in SSW 8.0 mph 9.0 mph 57% 0.00 in
14:28 80.2 °F 64.1 °F 30.04 in West 5.0 mph 7.0 mph 58% 0.00 in
14:33 80.4 °F 65.3 °F 30.04 in SSE 11.0 mph 11.0 mph 60% 0.00 in
14:38 80.1 °F 63.5 °F 30.04 in SE 5.0 mph 11.0 mph 57% 0.00 in
14:43 80.2 °F 63.1 °F 30.04 in SE 2.0 mph 2.0 mph 56% 0.00 in
14:48 81.2 °F 64.5 °F 30.04 in SW 7.0 mph 9.0 mph 57% 0.00 in
14:53 81.8 °F 64.1 °F 30.04 in SE 6.0 mph 8.0 mph 55% 0.00 in
14:58 81.4 °F 63.7 °F 30.04 in WSW 6.0 mph 9.0 mph 55% 0.00 in
15:03 81.1 °F 62.9 °F 30.04 in SW 2.0 mph 6.0 mph 54% 0.00 in
15:08 81.5 °F 62.2 °F 30.04 in South 5.0 mph 9.0 mph 52% 0.00 in
15:13 81.7 °F 62.9 °F 30.04 in SW 4.0 mph 10.0 mph 53% 0.00 in
15:18 81.9 °F 63.6 °F 30.04 in SSE 3.0 mph 6.0 mph 54% 0.00 in
15:23 82.1 °F 62.8 °F 30.04 in SSW 3.0 mph 8.0 mph 52% 0.00 in
15:28 81.9 °F 62.0 °F 30.03 in West 3.0 mph 7.0 mph 51% 0.00 in
15:33 82.2 °F 62.8 °F 30.03 in WSW 3.0 mph 3.0 mph 52% 0.00 in
15:38 82.7 °F 62.8 °F 30.03 in SE 1.0 mph 5.0 mph 51% 0.00 in
15:43 82.9 °F 62.9 °F 30.03 in SSE 8.0 mph 9.0 mph 51% 0.00 in
15:48 82.5 °F 61.4 °F 30.03 in SW 1.0 mph 11.0 mph 49% 0.00 in
15:53 82.5 °F 61.4 °F 30.03 in SE 2.0 mph 6.0 mph 49% 0.00 in
15:58 82.9 °F 61.8 °F 30.03 in SSE 2.0 mph 6.0 mph 49% 0.00 in
16:03 83.2 °F 62.1 °F 30.02 in SSE 5.0 mph 10.0 mph 49% 0.00 in
16:08 82.8 °F 61.1 °F 30.02 in South 4.0 mph 5.0 mph 48% 0.00 in
16:13 83.0 °F 62.5 °F 30.02 in SSW 5.0 mph 6.0 mph 50% 0.00 in
16:18 82.8 °F 62.3 °F 30.02 in ESE 6.0 mph 11.0 mph 50% 0.00 in
16:23 82.5 °F 62.0 °F 30.02 in WSW 3.0 mph 5.0 mph 50% 0.00 in
16:28 82.0 °F 61.5 °F 30.02 in SW 1.0 mph 7.0 mph 50% 0.00 in
16:33 82.1 °F 62.2 °F 30.01 in SW 3.0 mph 7.0 mph 51% 0.00 in
16:38 82.1 °F 58.7 °F 30.01 in SW 6.0 mph 10.0 mph 45% 0.00 in
16:43 82.1 °F 54.7 °F 30.01 in SW 6.0 mph 10.0 mph 39% 0.00 in
16:49 82.4 °F 55.0 °F 30.01 in SW 7.0 mph 9.0 mph 39% 0.00 in
16:54 82.7 °F 56.0 °F 30.01 in SW 5.0 mph 9.0 mph 40% 0.00 in
16:59 82.8 °F 55.3 °F 30.01 in SW 9.0 mph 11.0 mph 39% 0.00 in
17:04 82.7 °F 57.3 °F 30.01 in WSW 3.0 mph 8.0 mph 42% 0.00 in
17:09 82.8 °F 58.0 °F 30.01 in SW 5.0 mph 9.0 mph 43% 0.00 in
17:14 83.0 °F 57.6 °F 30.01 in SW 6.0 mph 6.0 mph 42% 0.00 in
17:19 83.1 °F 58.3 °F 30.01 in SSE 4.0 mph 5.0 mph 43% 0.00 in
17:24 83.2 °F 58.4 °F 30.01 in South 5.0 mph 9.0 mph 43% 0.00 in
17:29 83.2 °F 58.4 °F 30.00 in SW 3.0 mph 6.0 mph 43% 0.00 in
17:34 83.1 °F 59.6 °F 30.01 in SSE 3.0 mph 9.0 mph 45% 0.00 in
17:39 83.5 °F 59.9 °F 30.01 in SSW 4.0 mph 6.0 mph 45% 0.00 in
17:44 83.6 °F 58.8 °F 30.00 in SSE 8.0 mph 10.0 mph 43% 0.00 in
17:49 83.6 °F 58.8 °F 30.01 in South 3.0 mph 5.0 mph 43% 0.00 in
17:54 83.7 °F 58.8 °F 30.01 in SW 7.0 mph 7.0 mph 43% 0.00 in
17:59 83.5 °F 58.7 °F 30.00 in SSE 2.0 mph 6.0 mph 43% 0.00 in
18:04 83.4 °F 57.9 °F 30.01 in SSW 3.0 mph 10.0 mph 42% 0.00 in
18:09 82.9 °F 56.8 °F 30.01 in South 3.0 mph 7.0 mph 41% 0.00 in
18:14 82.9 °F 59.4 °F 30.01 in South 3.0 mph 4.0 mph 45% 0.00 in
18:19 82.8 °F 58.7 °F 30.01 in SSW 4.0 mph 5.0 mph 44% 0.00 in
18:24 82.6 °F 57.2 °F 30.01 in WSW 6.0 mph 9.0 mph 42% 0.00 in
18:29 82.8 °F 58.7 °F 30.01 in SW 6.0 mph 7.0 mph 44% 0.00 in
18:34 82.9 °F 58.1 °F 30.01 in SSE 5.0 mph 7.0 mph 43% 0.00 in
18:39 82.6 °F 57.9 °F 30.01 in SW 5.0 mph 9.0 mph 43% 0.00 in
18:44 82.3 °F 58.2 °F 30.01 in SSE 3.0 mph 7.0 mph 44% 0.00 in
18:49 82.4 °F 57.7 °F 30.01 in SSE 5.0 mph 8.0 mph 43% 0.00 in
18:54 82.4 °F 58.3 °F 30.01 in SSW 8.0 mph 8.0 mph 44% 0.00 in
18:59 82.5 °F 57.1 °F 30.01 in SSE 2.0 mph 7.0 mph 42% 0.00 in
19:04 82.3 °F 58.2 °F 30.01 in SW 2.0 mph 6.0 mph 44% 0.00 in
19:09 82.1 °F 58.0 °F 30.00 in SSW 2.0 mph 6.0 mph 44% 0.00 in
19:14 82.2 °F 58.1 °F 30.00 in SW 1.0 mph 5.0 mph 44% 0.00 in
19:20 82.0 °F 59.2 °F 30.00 in WSW 3.0 mph 5.0 mph 46% 0.00 in
19:25 81.8 °F 59.6 °F 30.00 in SSW 1.0 mph 3.0 mph 47% 0.00 in
19:30 81.8 °F 59.0 °F 30.00 in SSW 1.0 mph 4.0 mph 46% 0.00 in
19:35 81.6 °F 59.4 °F 30.00 in SSW 2.0 mph 3.0 mph 47% 0.00 in
19:40 81.2 °F 59.1 °F 30.00 in SSW 2.0 mph 3.0 mph 47% 0.00 in
19:45 80.9 °F 60.5 °F 30.00 in SW 2.0 mph 3.0 mph 50% 0.00 in
19:50 80.7 °F 60.3 °F 30.00 in SSW 1.0 mph 3.0 mph 50% 0.00 in
19:55 80.9 °F 60.5 °F 30.00 in SSW 1.0 mph 1.0 mph 50% 0.00 in
20:00 80.7 °F 59.8 °F 30.00 in SW 1.0 mph 2.0 mph 49% 0.00 in
20:05 80.6 °F 60.3 °F 30.01 in Calm   1.0 mph 50% 0.00 in
20:10 80.2 °F 60.5 °F 30.01 in Calm   1.0 mph 51% 0.00 in
20:15 79.5 °F 60.3 °F 30.01 in Calm   1.0 mph 52% 0.00 in
20:16 79.5 °F 60.9 °F 30.01 in Calm   1.0 mph 53% 0.00 in
20:21 78.5 °F 60.5 °F 30.01 in Calm     54% 0.00 in
20:26 77.2 °F 60.8 °F 30.00 in Calm     57% 0.00 in
20:31 76.3 °F 60.5 °F 30.01 in SSE 1.0 mph 1.0 mph 58% 0.00 in
20:36 75.3 °F 60.0 °F 30.01 in ESE 1.0 mph 1.0 mph 59% 0.00 in
20:41 74.6 °F 60.3 °F 30.01 in Calm   1.0 mph 61% 0.00 in
20:46 74.0 °F 59.7 °F 30.01 in Calm     61% 0.00 in
20:51 73.1 °F 59.8 °F 30.01 in Calm     63% 0.00 in
20:56 72.2 °F 59.8 °F 30.01 in Calm     65% 0.00 in
21:01 71.8 °F 59.8 °F 30.01 in Calm     66% 0.00 in
21:06 71.6 °F 59.7 °F 30.02 in Calm     66% 0.00 in
21:11 71.1 °F 59.6 °F 30.02 in Calm     67% 0.00 in
21:16 70.5 °F 59.4 °F 30.02 in Calm     68% 0.00 in
21:21 69.9 °F 59.7 °F 30.02 in Calm     70% 0.00 in
21:26 69.5 °F 60.1 °F 30.03 in Calm     72% 0.00 in
21:31 69.3 °F 60.3 °F 30.02 in Calm     73% 0.00 in
21:36 68.8 °F 60.2 °F 30.02 in Calm     74% 0.00 in
21:42 68.8 °F 59.8 °F 30.02 in Calm     73% 0.00 in
21:47 68.9 °F 59.5 °F 30.02 in Calm     72% 0.00 in
21:52 69.2 °F 59.8 °F 30.03 in Calm     72% 0.00 in
21:57 69.4 °F 59.6 °F 30.03 in Calm     71% 0.00 in
22:02 68.9 °F 59.5 °F 30.03 in Calm     72% 0.00 in
22:07 68.5 °F 59.5 °F 30.03 in Calm     73% 0.00 in
22:12 68.0 °F 59.4 °F 30.03 in Calm     74% 0.00 in
22:17 67.6 °F 59.4 °F 30.03 in Calm     75% 0.00 in
22:22 67.8 °F 59.6 °F 30.03 in Calm     75% 0.00 in
22:27 67.7 °F 59.1 °F 30.04 in Calm     74% 0.00 in
22:32 67.2 °F 59.0 °F 30.04 in Calm     75% 0.00 in
22:37 67.3 °F 59.1 °F 30.04 in Calm     75% 0.00 in
22:42 67.5 °F 59.3 °F 30.04 in Calm     75% 0.00 in
22:47 67.3 °F 59.5 °F 30.04 in Calm     76% 0.00 in
22:52 67.3 °F 59.5 °F 30.04 in Calm     76% 0.00 in
22:57 67.6 °F 59.4 °F 30.04 in Calm     75% 0.00 in
23:02 67.4 °F 59.2 °F 30.04 in Calm     75% 0.00 in
23:07 66.9 °F 59.1 °F 30.04 in Calm     76% 0.00 in
23:12 66.9 °F 59.5 °F 30.04 in Calm     77% 0.00 in
23:17 67.4 °F 59.6 °F 30.04 in Calm     76% 0.00 in
23:22 67.7 °F 59.5 °F 30.04 in East 1.0 mph 2.0 mph 75% 0.00 in
23:27 67.8 °F 59.6 °F 30.04 in ESE 1.0 mph 2.0 mph 75% 0.00 in
23:32 67.8 °F 59.2 °F 30.04 in Calm     74% 0.00 in
23:38 66.8 °F 59.0 °F 30.04 in Calm     76% 0.00 in
23:43 65.8 °F 58.8 °F 30.04 in Calm     78% 0.00 in
23:48 65.1 °F 58.8 °F 30.04 in Calm     80% 0.00 in
23:53 65.1 °F 58.8 °F 30.04 in Calm     80% 0.00 in
23:58 64.7 °F 58.4 °F 30.04 in Calm     80% 0.00 in
Compliments of Weather Underground